sensor_id;sensor_type;location;lat;lon;timestamp;P1;durP1;ratioP1;P2;durP2;ratioP2
25449;SDS011;13371;52.080;5.624;2024-02-28T00:00:08;50.03;;;16.67;;
25449;SDS011;13371;52.080;5.624;2024-02-28T00:02:35;48.17;;;17.15;;
25449;SDS011;13371;52.080;5.624;2024-02-28T00:05:01;50.85;;;17.65;;
25449;SDS011;13371;52.080;5.624;2024-02-28T00:07:27;47.72;;;16.25;;
25449;SDS011;13371;52.080;5.624;2024-02-28T00:09:53;48.95;;;16.85;;
25449;SDS011;13371;52.080;5.624;2024-02-28T00:12:23;45.50;;;16.90;;
25449;SDS011;13371;52.080;5.624;2024-02-28T00:14:52;49.58;;;17.48;;
25449;SDS011;13371;52.080;5.624;2024-02-28T00:17:17;44.83;;;16.73;;
25449;SDS011;13371;52.080;5.624;2024-02-28T00:19:43;50.17;;;18.10;;
25449;SDS011;13371;52.080;5.624;2024-02-28T00:22:09;43.63;;;16.33;;
25449;SDS011;13371;52.080;5.624;2024-02-28T00:24:34;47.20;;;16.38;;
25449;SDS011;13371;52.080;5.624;2024-02-28T00:27:00;46.50;;;14.50;;
25449;SDS011;13371;52.080;5.624;2024-02-28T00:29:26;44.45;;;16.75;;
25449;SDS011;13371;52.080;5.624;2024-02-28T00:31:52;41.80;;;16.20;;
25449;SDS011;13371;52.080;5.624;2024-02-28T00:34:18;42.20;;;15.23;;
25449;SDS011;13371;52.080;5.624;2024-02-28T00:36:43;41.47;;;15.65;;
25449;SDS011;13371;52.080;5.624;2024-02-28T00:39:10;43.58;;;15.57;;
25449;SDS011;13371;52.080;5.624;2024-02-28T00:41:35;38.70;;;15.77;;
25449;SDS011;13371;52.080;5.624;2024-02-28T00:44:02;43.00;;;15.60;;
25449;SDS011;13371;52.080;5.624;2024-02-28T00:46:28;43.83;;;16.80;;
25449;SDS011;13371;52.080;5.624;2024-02-28T00:48:53;43.00;;;15.48;;
25449;SDS011;13371;52.080;5.624;2024-02-28T00:51:19;43.58;;;14.93;;
25449;SDS011;13371;52.080;5.624;2024-02-28T00:53:44;42.75;;;15.38;;
25449;SDS011;13371;52.080;5.624;2024-02-28T00:56:10;40.63;;;15.52;;
25449;SDS011;13371;52.080;5.624;2024-02-28T00:58:36;46.33;;;16.88;;
25449;SDS011;13371;52.080;5.624;2024-02-28T01:01:01;42.85;;;16.15;;
25449;SDS011;13371;52.080;5.624;2024-02-28T01:03:27;55.63;;;18.45;;
25449;SDS011;13371;52.080;5.624;2024-02-28T01:05:53;42.70;;;15.23;;
25449;SDS011;13371;52.080;5.624;2024-02-28T01:08:18;44.10;;;15.52;;
25449;SDS011;13371;52.080;5.624;2024-02-28T01:10:44;45.97;;;16.55;;
25449;SDS011;13371;52.080;5.624;2024-02-28T01:13:10;46.03;;;16.60;;
25449;SDS011;13371;52.080;5.624;2024-02-28T01:15:36;41.08;;;15.90;;
25449;SDS011;13371;52.080;5.624;2024-02-28T01:18:01;41.80;;;16.50;;
25449;SDS011;13371;52.080;5.624;2024-02-28T01:20:27;40.83;;;15.57;;
25449;SDS011;13371;52.080;5.624;2024-02-28T01:22:53;43.63;;;14.85;;
25449;SDS011;13371;52.080;5.624;2024-02-28T01:25:18;36.25;;;14.88;;
25449;SDS011;13371;52.080;5.624;2024-02-28T01:27:44;35.63;;;14.85;;
25449;SDS011;13371;52.080;5.624;2024-02-28T01:30:09;37.28;;;15.02;;
25449;SDS011;13371;52.080;5.624;2024-02-28T01:32:35;39.88;;;14.13;;
25449;SDS011;13371;52.080;5.624;2024-02-28T01:35:04;39.70;;;14.77;;
25449;SDS011;13371;52.080;5.624;2024-02-28T01:37:30;36.38;;;13.05;;
25449;SDS011;13371;52.080;5.624;2024-02-28T01:39:55;37.33;;;15.20;;
25449;SDS011;13371;52.080;5.624;2024-02-28T01:42:21;30.13;;;13.63;;
25449;SDS011;13371;52.080;5.624;2024-02-28T01:44:47;32.75;;;13.70;;
25449;SDS011;13371;52.080;5.624;2024-02-28T01:47:13;34.60;;;13.05;;
25449;SDS011;13371;52.080;5.624;2024-02-28T01:49:40;28.95;;;12.75;;
25449;SDS011;13371;52.080;5.624;2024-02-28T01:52:07;37.42;;;14.20;;
25449;SDS011;13371;52.080;5.624;2024-02-28T01:54:34;28.45;;;13.50;;
25449;SDS011;13371;52.080;5.624;2024-02-28T01:57:00;26.23;;;12.60;;
25449;SDS011;13371;52.080;5.624;2024-02-28T01:59:27;27.70;;;11.27;;
25449;SDS011;13371;52.080;5.624;2024-02-28T02:01:54;42.90;;;14.10;;
25449;SDS011;13371;52.080;5.624;2024-02-28T02:04:20;38.70;;;13.52;;
25449;SDS011;13371;52.080;5.624;2024-02-28T02:06:46;38.35;;;12.55;;
25449;SDS011;13371;52.080;5.624;2024-02-28T02:09:13;37.92;;;13.80;;
25449;SDS011;13371;52.080;5.624;2024-02-28T02:11:38;33.00;;;13.25;;
25449;SDS011;13371;52.080;5.624;2024-02-28T02:14:04;28.15;;;11.73;;
25449;SDS011;13371;52.080;5.624;2024-02-28T02:16:30;31.05;;;13.88;;
25449;SDS011;13371;52.080;5.624;2024-02-28T02:18:55;42.58;;;12.43;;
25449;SDS011;13371;52.080;5.624;2024-02-28T02:21:27;34.10;;;13.68;;
25449;SDS011;13371;52.080;5.624;2024-02-28T02:23:55;32.70;;;12.77;;
25449;SDS011;13371;52.080;5.624;2024-02-28T02:26:21;39.50;;;12.93;;
25449;SDS011;13371;52.080;5.624;2024-02-28T02:28:46;46.65;;;13.63;;
25449;SDS011;13371;52.080;5.624;2024-02-28T02:31:13;38.08;;;11.88;;
25449;SDS011;13371;52.080;5.624;2024-02-28T02:33:39;36.05;;;11.90;;
25449;SDS011;13371;52.080;5.624;2024-02-28T02:36:04;33.00;;;11.20;;
25449;SDS011;13371;52.080;5.624;2024-02-28T02:38:30;30.70;;;12.95;;
25449;SDS011;13371;52.080;5.624;2024-02-28T02:40:56;35.20;;;13.25;;
25449;SDS011;13371;52.080;5.624;2024-02-28T02:43:21;42.58;;;12.15;;
25449;SDS011;13371;52.080;5.624;2024-02-28T02:45:47;27.00;;;12.80;;
25449;SDS011;13371;52.080;5.624;2024-02-28T02:48:13;32.45;;;12.88;;
25449;SDS011;13371;52.080;5.624;2024-02-28T02:50:38;40.67;;;13.43;;
25449;SDS011;13371;52.080;5.624;2024-02-28T02:53:04;24.38;;;11.10;;
25449;SDS011;13371;52.080;5.624;2024-02-28T02:55:32;32.33;;;13.32;;
25449;SDS011;13371;52.080;5.624;2024-02-28T02:57:57;31.40;;;12.82;;
25449;SDS011;13371;52.080;5.624;2024-02-28T03:00:23;32.95;;;13.95;;
25449;SDS011;13371;52.080;5.624;2024-02-28T03:02:48;33.25;;;13.63;;
25449;SDS011;13371;52.080;5.624;2024-02-28T03:05:14;31.15;;;12.82;;
25449;SDS011;13371;52.080;5.624;2024-02-28T03:07:39;36.47;;;13.85;;
25449;SDS011;13371;52.080;5.624;2024-02-28T03:10:05;29.98;;;12.82;;
25449;SDS011;13371;52.080;5.624;2024-02-28T03:12:31;32.15;;;13.70;;
25449;SDS011;13371;52.080;5.624;2024-02-28T03:14:57;32.80;;;13.90;;
25449;SDS011;13371;52.080;5.624;2024-02-28T03:17:23;37.53;;;14.95;;
25449;SDS011;13371;52.080;5.624;2024-02-28T03:19:48;27.55;;;12.82;;
25449;SDS011;13371;52.080;5.624;2024-02-28T03:22:14;33.97;;;13.27;;
25449;SDS011;13371;52.080;5.624;2024-02-28T03:24:40;29.98;;;13.90;;
25449;SDS011;13371;52.080;5.624;2024-02-28T03:27:06;41.10;;;14.48;;
25449;SDS011;13371;52.080;5.624;2024-02-28T03:29:31;32.20;;;12.27;;
25449;SDS011;13371;52.080;5.624;2024-02-28T03:31:57;33.60;;;14.75;;
25449;SDS011;13371;52.080;5.624;2024-02-28T03:34:23;28.42;;;12.10;;
25449;SDS011;13371;52.080;5.624;2024-02-28T03:36:49;29.98;;;13.35;;
25449;SDS011;13371;52.080;5.624;2024-02-28T03:39:15;30.40;;;13.73;;
25449;SDS011;13371;52.080;5.624;2024-02-28T03:41:40;33.28;;;13.57;;
25449;SDS011;13371;52.080;5.624;2024-02-28T03:44:06;29.77;;;14.57;;
25449;SDS011;13371;52.080;5.624;2024-02-28T03:46:31;29.75;;;12.50;;
25449;SDS011;13371;52.080;5.624;2024-02-28T03:48:57;26.95;;;12.50;;
25449;SDS011;13371;52.080;5.624;2024-02-28T03:51:22;29.02;;;12.70;;
25449;SDS011;13371;52.080;5.624;2024-02-28T03:53:48;37.10;;;14.13;;
25449;SDS011;13371;52.080;5.624;2024-02-28T03:56:21;35.83;;;13.45;;
25449;SDS011;13371;52.080;5.624;2024-02-28T03:58:50;31.50;;;12.75;;
25449;SDS011;13371;52.080;5.624;2024-02-28T04:01:16;30.98;;;12.90;;
25449;SDS011;13371;52.080;5.624;2024-02-28T04:03:41;30.23;;;12.15;;
25449;SDS011;13371;52.080;5.624;2024-02-28T04:06:07;25.83;;;12.55;;
25449;SDS011;13371;52.080;5.624;2024-02-28T04:08:33;26.77;;;13.57;;
25449;SDS011;13371;52.080;5.624;2024-02-28T04:10:58;39.38;;;11.93;;
25449;SDS011;13371;52.080;5.624;2024-02-28T04:13:24;23.27;;;11.60;;
25449;SDS011;13371;52.080;5.624;2024-02-28T04:15:49;32.83;;;13.13;;
25449;SDS011;13371;52.080;5.624;2024-02-28T04:18:15;31.92;;;13.93;;
25449;SDS011;13371;52.080;5.624;2024-02-28T04:20:40;25.92;;;12.73;;
25449;SDS011;13371;52.080;5.624;2024-02-28T04:23:06;29.25;;;13.23;;
25449;SDS011;13371;52.080;5.624;2024-02-28T04:25:31;33.05;;;13.75;;
25449;SDS011;13371;52.080;5.624;2024-02-28T04:27:57;30.10;;;13.13;;
25449;SDS011;13371;52.080;5.624;2024-02-28T04:30:23;33.15;;;13.50;;
25449;SDS011;13371;52.080;5.624;2024-02-28T04:32:48;29.15;;;13.65;;
25449;SDS011;13371;52.080;5.624;2024-02-28T04:35:14;30.75;;;13.30;;
25449;SDS011;13371;52.080;5.624;2024-02-28T04:37:43;33.55;;;15.20;;
25449;SDS011;13371;52.080;5.624;2024-02-28T04:40:09;30.15;;;14.10;;
25449;SDS011;13371;52.080;5.624;2024-02-28T04:42:35;35.10;;;15.10;;
25449;SDS011;13371;52.080;5.624;2024-02-28T04:45:01;29.40;;;12.63;;
25449;SDS011;13371;52.080;5.624;2024-02-28T04:47:27;34.05;;;15.10;;
25449;SDS011;13371;52.080;5.624;2024-02-28T04:49:53;34.97;;;15.20;;
25449;SDS011;13371;52.080;5.624;2024-02-28T04:52:18;32.63;;;13.95;;
25449;SDS011;13371;52.080;5.624;2024-02-28T04:54:44;33.78;;;14.30;;
25449;SDS011;13371;52.080;5.624;2024-02-28T04:57:10;34.00;;;14.32;;
25449;SDS011;13371;52.080;5.624;2024-02-28T04:59:35;30.63;;;13.95;;
25449;SDS011;13371;52.080;5.624;2024-02-28T05:02:01;23.15;;;11.52;;
25449;SDS011;13371;52.080;5.624;2024-02-28T05:04:27;26.85;;;13.30;;
25449;SDS011;13371;52.080;5.624;2024-02-28T05:06:52;24.70;;;11.75;;
25449;SDS011;13371;52.080;5.624;2024-02-28T05:09:18;26.55;;;12.07;;
25449;SDS011;13371;52.080;5.624;2024-02-28T05:11:43;26.60;;;11.63;;
25449;SDS011;13371;52.080;5.624;2024-02-28T05:14:10;22.70;;;11.70;;
25449;SDS011;13371;52.080;5.624;2024-02-28T05:16:36;23.17;;;12.05;;
25449;SDS011;13371;52.080;5.624;2024-02-28T05:19:01;26.80;;;11.68;;
25449;SDS011;13371;52.080;5.624;2024-02-28T05:21:29;26.58;;;12.30;;
25449;SDS011;13371;52.080;5.624;2024-02-28T05:23:55;24.38;;;11.77;;
25449;SDS011;13371;52.080;5.624;2024-02-28T05:26:20;22.98;;;11.88;;
25449;SDS011;13371;52.080;5.624;2024-02-28T05:28:46;22.33;;;11.07;;
25449;SDS011;13371;52.080;5.624;2024-02-28T05:31:24;22.13;;;11.57;;
25449;SDS011;13371;52.080;5.624;2024-02-28T05:33:52;23.55;;;12.10;;
25449;SDS011;13371;52.080;5.624;2024-02-28T05:36:19;23.58;;;12.45;;
25449;SDS011;13371;52.080;5.624;2024-02-28T05:38:48;25.50;;;13.05;;
25449;SDS011;13371;52.080;5.624;2024-02-28T05:41:18;24.17;;;12.23;;
25449;SDS011;13371;52.080;5.624;2024-02-28T05:43:43;25.98;;;12.82;;
25449;SDS011;13371;52.080;5.624;2024-02-28T05:46:10;26.73;;;13.40;;
25449;SDS011;13371;52.080;5.624;2024-02-28T05:48:35;24.13;;;13.48;;
25449;SDS011;13371;52.080;5.624;2024-02-28T05:51:01;23.98;;;12.38;;
25449;SDS011;13371;52.080;5.624;2024-02-28T05:53:27;23.70;;;12.55;;
25449;SDS011;13371;52.080;5.624;2024-02-28T05:55:53;25.95;;;13.05;;
25449;SDS011;13371;52.080;5.624;2024-02-28T05:58:19;28.73;;;13.25;;
25449;SDS011;13371;52.080;5.624;2024-02-28T06:00:44;26.77;;;13.38;;
25449;SDS011;13371;52.080;5.624;2024-02-28T06:03:10;27.83;;;14.15;;
25449;SDS011;13371;52.080;5.624;2024-02-28T06:05:35;23.75;;;12.25;;
25449;SDS011;13371;52.080;5.624;2024-02-28T06:08:01;27.20;;;12.27;;
25449;SDS011;13371;52.080;5.624;2024-02-28T06:10:26;27.05;;;13.85;;
25449;SDS011;13371;52.080;5.624;2024-02-28T06:12:53;22.42;;;12.65;;
25449;SDS011;13371;52.080;5.624;2024-02-28T06:15:19;26.98;;;12.40;;
25449;SDS011;13371;52.080;5.624;2024-02-28T06:17:44;28.20;;;13.80;;
25449;SDS011;13371;52.080;5.624;2024-02-28T06:20:10;24.55;;;13.13;;
25449;SDS011;13371;52.080;5.624;2024-02-28T06:22:36;24.90;;;13.23;;
25449;SDS011;13371;52.080;5.624;2024-02-28T06:25:01;27.08;;;12.32;;
25449;SDS011;13371;52.080;5.624;2024-02-28T06:27:27;23.00;;;12.95;;
25449;SDS011;13371;52.080;5.624;2024-02-28T06:29:52;31.00;;;14.82;;
25449;SDS011;13371;52.080;5.624;2024-02-28T06:32:18;27.10;;;13.57;;
25449;SDS011;13371;52.080;5.624;2024-02-28T06:34:43;25.23;;;12.98;;
25449;SDS011;13371;52.080;5.624;2024-02-28T06:37:09;26.85;;;13.07;;
25449;SDS011;13371;52.080;5.624;2024-02-28T06:39:34;32.20;;;16.35;;
25449;SDS011;13371;52.080;5.624;2024-02-28T06:42:00;31.55;;;14.15;;
25449;SDS011;13371;52.080;5.624;2024-02-28T06:44:25;25.60;;;13.63;;
25449;SDS011;13371;52.080;5.624;2024-02-28T06:46:51;26.63;;;13.80;;
25449;SDS011;13371;52.080;5.624;2024-02-28T06:49:17;31.98;;;15.55;;
25449;SDS011;13371;52.080;5.624;2024-02-28T06:51:43;30.27;;;16.17;;
25449;SDS011;13371;52.080;5.624;2024-02-28T06:54:09;29.15;;;16.58;;
25449;SDS011;13371;52.080;5.624;2024-02-28T06:56:35;27.17;;;14.30;;
25449;SDS011;13371;52.080;5.624;2024-02-28T06:59:01;31.10;;;15.90;;
25449;SDS011;13371;52.080;5.624;2024-02-28T07:01:27;33.47;;;17.40;;
25449;SDS011;13371;52.080;5.624;2024-02-28T07:03:52;29.52;;;15.57;;
25449;SDS011;13371;52.080;5.624;2024-02-28T07:06:18;31.80;;;16.88;;
25449;SDS011;13371;52.080;5.624;2024-02-28T07:08:43;27.50;;;16.38;;
25449;SDS011;13371;52.080;5.624;2024-02-28T07:11:15;30.95;;;15.70;;
25449;SDS011;13371;52.080;5.624;2024-02-28T07:13:41;40.03;;;19.65;;
25449;SDS011;13371;52.080;5.624;2024-02-28T07:16:06;32.92;;;17.45;;
25449;SDS011;13371;52.080;5.624;2024-02-28T07:18:33;34.17;;;18.02;;
25449;SDS011;13371;52.080;5.624;2024-02-28T07:20:58;36.95;;;19.48;;
25449;SDS011;13371;52.080;5.624;2024-02-28T07:23:24;38.60;;;20.58;;
25449;SDS011;13371;52.080;5.624;2024-02-28T07:25:50;39.28;;;17.20;;
25449;SDS011;13371;52.080;5.624;2024-02-28T07:28:15;34.95;;;17.92;;
25449;SDS011;13371;52.080;5.624;2024-02-28T07:30:41;41.47;;;19.80;;
25449;SDS011;13371;52.080;5.624;2024-02-28T07:33:08;29.42;;;16.58;;
25449;SDS011;13371;52.080;5.624;2024-02-28T07:35:44;31.40;;;17.15;;
25449;SDS011;13371;52.080;5.624;2024-02-28T07:38:10;31.60;;;17.58;;
25449;SDS011;13371;52.080;5.624;2024-02-28T07:40:36;31.77;;;17.27;;
25449;SDS011;13371;52.080;5.624;2024-02-28T07:43:02;37.70;;;20.05;;
25449;SDS011;13371;52.080;5.624;2024-02-28T07:45:27;36.80;;;19.70;;
25449;SDS011;13371;52.080;5.624;2024-02-28T07:47:53;36.65;;;20.13;;
25449;SDS011;13371;52.080;5.624;2024-02-28T07:50:18;36.00;;;18.92;;
25449;SDS011;13371;52.080;5.624;2024-02-28T07:52:44;36.63;;;17.95;;
25449;SDS011;13371;52.080;5.624;2024-02-28T07:55:10;35.38;;;18.88;;
25449;SDS011;13371;52.080;5.624;2024-02-28T07:57:35;30.88;;;17.17;;
25449;SDS011;13371;52.080;5.624;2024-02-28T08:00:01;42.30;;;20.33;;
25449;SDS011;13371;52.080;5.624;2024-02-28T08:02:27;36.28;;;19.38;;
25449;SDS011;13371;52.080;5.624;2024-02-28T08:04:53;41.17;;;20.33;;
25449;SDS011;13371;52.080;5.624;2024-02-28T08:07:19;38.17;;;18.25;;
25449;SDS011;13371;52.080;5.624;2024-02-28T08:09:44;40.13;;;20.63;;
25449;SDS011;13371;52.080;5.624;2024-02-28T08:12:10;39.17;;;19.33;;
25449;SDS011;13371;52.080;5.624;2024-02-28T08:14:35;37.25;;;18.67;;
25449;SDS011;13371;52.080;5.624;2024-02-28T08:17:01;39.60;;;20.65;;
25449;SDS011;13371;52.080;5.624;2024-02-28T08:19:26;36.58;;;20.13;;
25449;SDS011;13371;52.080;5.624;2024-02-28T08:21:52;38.10;;;19.80;;
25449;SDS011;13371;52.080;5.624;2024-02-28T08:24:17;45.85;;;20.38;;
25449;SDS011;13371;52.080;5.624;2024-02-28T08:26:43;43.28;;;20.30;;
25449;SDS011;13371;52.080;5.624;2024-02-28T08:29:09;42.22;;;20.70;;
25449;SDS011;13371;52.080;5.624;2024-02-28T08:31:39;41.88;;;20.65;;
25449;SDS011;13371;52.080;5.624;2024-02-28T08:34:08;42.05;;;19.35;;
25449;SDS011;13371;52.080;5.624;2024-02-28T08:36:34;37.13;;;19.58;;
25449;SDS011;13371;52.080;5.624;2024-02-28T08:39:00;39.58;;;19.45;;
25449;SDS011;13371;52.080;5.624;2024-02-28T08:41:26;46.88;;;23.02;;
25449;SDS011;13371;52.080;5.624;2024-02-28T08:43:52;46.28;;;21.33;;
25449;SDS011;13371;52.080;5.624;2024-02-28T08:46:17;42.85;;;22.75;;
25449;SDS011;13371;52.080;5.624;2024-02-28T08:48:43;45.10;;;18.88;;
25449;SDS011;13371;52.080;5.624;2024-02-28T08:51:09;38.33;;;17.73;;
25449;SDS011;13371;52.080;5.624;2024-02-28T08:53:34;38.10;;;19.80;;
25449;SDS011;13371;52.080;5.624;2024-02-28T08:56:00;41.13;;;21.05;;
25449;SDS011;13371;52.080;5.624;2024-02-28T08:58:25;43.50;;;21.42;;
25449;SDS011;13371;52.080;5.624;2024-02-28T09:00:51;49.45;;;23.80;;
25449;SDS011;13371;52.080;5.624;2024-02-28T09:03:17;49.03;;;21.77;;
25449;SDS011;13371;52.080;5.624;2024-02-28T09:05:42;38.50;;;21.70;;
25449;SDS011;13371;52.080;5.624;2024-02-28T09:08:08;49.38;;;22.38;;
25449;SDS011;13371;52.080;5.624;2024-02-28T09:10:34;48.13;;;23.90;;
25449;SDS011;13371;52.080;5.624;2024-02-28T09:12:59;44.40;;;20.80;;
25449;SDS011;13371;52.080;5.624;2024-02-28T09:15:25;46.47;;;22.25;;
25449;SDS011;13371;52.080;5.624;2024-02-28T09:17:51;44.88;;;21.95;;
25449;SDS011;13371;52.080;5.624;2024-02-28T09:20:17;41.47;;;19.40;;
25449;SDS011;13371;52.080;5.624;2024-02-28T09:22:42;45.70;;;23.20;;
25449;SDS011;13371;52.080;5.624;2024-02-28T09:25:08;45.55;;;23.25;;
25449;SDS011;13371;52.080;5.624;2024-02-28T09:27:34;47.33;;;23.60;;
25449;SDS011;13371;52.080;5.624;2024-02-28T09:30:03;49.92;;;23.75;;
25449;SDS011;13371;52.080;5.624;2024-02-28T09:32:29;54.38;;;22.75;;
25449;SDS011;13371;52.080;5.624;2024-02-28T09:34:55;51.55;;;22.70;;
25449;SDS011;13371;52.080;5.624;2024-02-28T09:37:20;44.95;;;23.05;;
25449;SDS011;13371;52.080;5.624;2024-02-28T09:39:47;49.22;;;24.05;;
25449;SDS011;13371;52.080;5.624;2024-02-28T09:42:13;52.17;;;23.67;;
25449;SDS011;13371;52.080;5.624;2024-02-28T09:44:40;50.38;;;23.80;;
25449;SDS011;13371;52.080;5.624;2024-02-28T09:47:07;54.15;;;24.00;;
25449;SDS011;13371;52.080;5.624;2024-02-28T09:49:33;56.60;;;24.00;;
25449;SDS011;13371;52.080;5.624;2024-02-28T09:52:02;56.40;;;26.63;;
25449;SDS011;13371;52.080;5.624;2024-02-28T09:54:29;61.97;;;26.27;;
25449;SDS011;13371;52.080;5.624;2024-02-28T09:56:54;57.58;;;26.80;;
25449;SDS011;13371;52.080;5.624;2024-02-28T09:59:20;54.28;;;26.00;;
25449;SDS011;13371;52.080;5.624;2024-02-28T10:01:51;57.45;;;27.77;;
25449;SDS011;13371;52.080;5.624;2024-02-28T10:04:20;61.35;;;26.77;;
25449;SDS011;13371;52.080;5.624;2024-02-28T10:06:47;59.50;;;28.08;;
25449;SDS011;13371;52.080;5.624;2024-02-28T10:09:14;61.25;;;27.10;;
25449;SDS011;13371;52.080;5.624;2024-02-28T10:11:41;62.92;;;27.90;;
25449;SDS011;13371;52.080;5.624;2024-02-28T10:14:08;58.67;;;25.85;;
25449;SDS011;13371;52.080;5.624;2024-02-28T10:16:35;62.47;;;28.77;;
25449;SDS011;13371;52.080;5.624;2024-02-28T10:19:04;56.85;;;26.38;;
25449;SDS011;13371;52.080;5.624;2024-02-28T10:21:31;66.72;;;30.02;;
25449;SDS011;13371;52.080;5.624;2024-02-28T10:24:00;75.85;;;29.20;;
25449;SDS011;13371;52.080;5.624;2024-02-28T10:26:26;64.95;;;30.08;;
25449;SDS011;13371;52.080;5.624;2024-02-28T10:28:51;64.28;;;29.00;;
25449;SDS011;13371;52.080;5.624;2024-02-28T10:31:17;66.78;;;28.20;;
25449;SDS011;13371;52.080;5.624;2024-02-28T10:33:43;68.40;;;30.38;;
25449;SDS011;13371;52.080;5.624;2024-02-28T10:36:08;66.18;;;31.77;;
25449;SDS011;13371;52.080;5.624;2024-02-28T10:38:34;68.18;;;29.90;;
25449;SDS011;13371;52.080;5.624;2024-02-28T10:41:03;75.32;;;30.05;;
25449;SDS011;13371;52.080;5.624;2024-02-28T10:43:29;65.53;;;30.77;;
25449;SDS011;13371;52.080;5.624;2024-02-28T10:45:58;62.67;;;28.48;;
25449;SDS011;13371;52.080;5.624;2024-02-28T10:48:25;61.92;;;29.02;;
25449;SDS011;13371;52.080;5.624;2024-02-28T10:50:50;57.00;;;28.10;;
25449;SDS011;13371;52.080;5.624;2024-02-28T10:53:19;68.78;;;31.88;;
25449;SDS011;13371;52.080;5.624;2024-02-28T10:55:47;58.40;;;28.02;;
25449;SDS011;13371;52.080;5.624;2024-02-28T10:58:14;52.35;;;25.30;;
25449;SDS011;13371;52.080;5.624;2024-02-28T11:00:41;46.00;;;23.98;;
25449;SDS011;13371;52.080;5.624;2024-02-28T11:03:09;52.78;;;26.20;;
25449;SDS011;13371;52.080;5.624;2024-02-28T11:05:36;47.58;;;23.17;;
25449;SDS011;13371;52.080;5.624;2024-02-28T11:08:04;42.78;;;23.15;;
25449;SDS011;13371;52.080;5.624;2024-02-28T11:10:33;49.13;;;23.95;;
25449;SDS011;13371;52.080;5.624;2024-02-28T11:12:59;42.22;;;22.85;;
25449;SDS011;13371;52.080;5.624;2024-02-28T11:15:25;46.78;;;22.42;;
25449;SDS011;13371;52.080;5.624;2024-02-28T11:17:54;40.78;;;20.55;;
25449;SDS011;13371;52.080;5.624;2024-02-28T11:20:20;39.33;;;21.10;;
25449;SDS011;13371;52.080;5.624;2024-02-28T11:22:48;37.67;;;21.40;;
25449;SDS011;13371;52.080;5.624;2024-02-28T11:25:14;39.47;;;21.70;;
25449;SDS011;13371;52.080;5.624;2024-02-28T11:27:46;39.58;;;20.88;;
25449;SDS011;13371;52.080;5.624;2024-02-28T11:30:13;35.17;;;20.10;;
25449;SDS011;13371;52.080;5.624;2024-02-28T11:32:39;41.85;;;20.58;;
25449;SDS011;13371;52.080;5.624;2024-02-28T11:35:04;38.65;;;20.27;;
25449;SDS011;13371;52.080;5.624;2024-02-28T11:37:31;41.08;;;21.55;;
25449;SDS011;13371;52.080;5.624;2024-02-28T11:39:57;37.97;;;20.95;;
25449;SDS011;13371;52.080;5.624;2024-02-28T11:42:23;39.28;;;21.90;;
25449;SDS011;13371;52.080;5.624;2024-02-28T11:44:55;46.05;;;21.00;;
25449;SDS011;13371;52.080;5.624;2024-02-28T11:47:22;40.85;;;21.70;;
25449;SDS011;13371;52.080;5.624;2024-02-28T11:49:48;48.28;;;22.95;;
25449;SDS011;13371;52.080;5.624;2024-02-28T11:52:14;45.20;;;23.30;;
25449;SDS011;13371;52.080;5.624;2024-02-28T11:54:40;43.45;;;21.40;;
25449;SDS011;13371;52.080;5.624;2024-02-28T11:57:07;45.47;;;20.55;;
25449;SDS011;13371;52.080;5.624;2024-02-28T11:59:36;39.95;;;20.98;;
25449;SDS011;13371;52.080;5.624;2024-02-28T12:02:14;37.80;;;19.65;;
25449;SDS011;13371;52.080;5.624;2024-02-28T12:04:44;37.78;;;18.38;;
25449;SDS011;13371;52.080;5.624;2024-02-28T12:07:12;41.33;;;20.20;;
25449;SDS011;13371;52.080;5.624;2024-02-28T12:09:39;44.78;;;19.17;;
25449;SDS011;13371;52.080;5.624;2024-02-28T12:12:06;39.55;;;19.70;;
25449;SDS011;13371;52.080;5.624;2024-02-28T12:14:35;41.08;;;19.75;;
25449;SDS011;13371;52.080;5.624;2024-02-28T12:17:03;35.88;;;17.60;;
25449;SDS011;13371;52.080;5.624;2024-02-28T12:19:29;41.50;;;20.27;;
25449;SDS011;13371;52.080;5.624;2024-02-28T12:21:54;39.72;;;18.98;;
25449;SDS011;13371;52.080;5.624;2024-02-28T12:24:20;44.78;;;20.30;;
25449;SDS011;13371;52.080;5.624;2024-02-28T12:26:46;42.17;;;20.58;;
25449;SDS011;13371;52.080;5.624;2024-02-28T12:29:11;39.92;;;20.52;;
25449;SDS011;13371;52.080;5.624;2024-02-28T12:31:38;40.08;;;20.00;;
25449;SDS011;13371;52.080;5.624;2024-02-28T12:34:04;37.25;;;20.05;;
25449;SDS011;13371;52.080;5.624;2024-02-28T12:36:29;36.85;;;18.58;;
25449;SDS011;13371;52.080;5.624;2024-02-28T12:38:58;40.85;;;18.77;;
25449;SDS011;13371;52.080;5.624;2024-02-28T12:41:24;39.20;;;18.23;;
25449;SDS011;13371;52.080;5.624;2024-02-28T12:43:51;37.38;;;17.83;;
25449;SDS011;13371;52.080;5.624;2024-02-28T12:46:16;39.17;;;19.40;;
25449;SDS011;13371;52.080;5.624;2024-02-28T12:48:42;40.58;;;18.55;;
25449;SDS011;13371;52.080;5.624;2024-02-28T12:51:10;39.35;;;18.42;;
25449;SDS011;13371;52.080;5.624;2024-02-28T12:53:45;38.20;;;18.08;;
25449;SDS011;13371;52.080;5.624;2024-02-28T12:56:11;39.40;;;19.52;;
25449;SDS011;13371;52.080;5.624;2024-02-28T12:58:36;41.30;;;19.63;;
25449;SDS011;13371;52.080;5.624;2024-02-28T13:01:03;40.50;;;19.42;;
25449;SDS011;13371;52.080;5.624;2024-02-28T13:03:29;41.53;;;20.55;;
25449;SDS011;13371;52.080;5.624;2024-02-28T13:05:55;42.75;;;19.52;;
25449;SDS011;13371;52.080;5.624;2024-02-28T13:08:21;37.22;;;18.83;;
25449;SDS011;13371;52.080;5.624;2024-02-28T13:10:46;39.70;;;20.17;;
25449;SDS011;13371;52.080;5.624;2024-02-28T13:13:12;41.38;;;21.60;;
25449;SDS011;13371;52.080;5.624;2024-02-28T13:15:38;39.17;;;20.15;;
25449;SDS011;13371;52.080;5.624;2024-02-28T13:18:05;45.15;;;19.60;;
25449;SDS011;13371;52.080;5.624;2024-02-28T13:20:34;36.70;;;19.33;;
25449;SDS011;13371;52.080;5.624;2024-02-28T13:23:00;40.38;;;19.80;;
25449;SDS011;13371;52.080;5.624;2024-02-28T13:25:26;37.92;;;19.33;;
25449;SDS011;13371;52.080;5.624;2024-02-28T13:27:51;35.20;;;19.58;;
25449;SDS011;13371;52.080;5.624;2024-02-28T13:30:17;35.15;;;19.73;;
25449;SDS011;13371;52.080;5.624;2024-02-28T13:32:43;41.08;;;19.42;;
25449;SDS011;13371;52.080;5.624;2024-02-28T13:35:08;34.92;;;17.77;;
25449;SDS011;13371;52.080;5.624;2024-02-28T13:37:35;33.78;;;18.13;;
25449;SDS011;13371;52.080;5.624;2024-02-28T13:40:02;29.65;;;16.90;;
25449;SDS011;13371;52.080;5.624;2024-02-28T13:42:29;44.58;;;17.92;;
25449;SDS011;13371;52.080;5.624;2024-02-28T13:44:55;32.55;;;17.17;;
25449;SDS011;13371;52.080;5.624;2024-02-28T13:47:21;31.38;;;16.10;;
25449;SDS011;13371;52.080;5.624;2024-02-28T13:49:48;30.77;;;16.75;;
25449;SDS011;13371;52.080;5.624;2024-02-28T13:52:15;35.47;;;16.88;;
25449;SDS011;13371;52.080;5.624;2024-02-28T13:54:40;34.83;;;17.08;;
25449;SDS011;13371;52.080;5.624;2024-02-28T13:57:06;37.95;;;18.10;;
25449;SDS011;13371;52.080;5.624;2024-02-28T13:59:32;33.58;;;17.35;;
25449;SDS011;13371;52.080;5.624;2024-02-28T14:01:58;29.75;;;14.50;;
25449;SDS011;13371;52.080;5.624;2024-02-28T14:04:29;27.15;;;15.55;;
25449;SDS011;13371;52.080;5.624;2024-02-28T14:06:54;26.73;;;14.07;;
25449;SDS011;13371;52.080;5.624;2024-02-28T14:09:21;26.67;;;15.63;;
25449;SDS011;13371;52.080;5.624;2024-02-28T14:11:47;26.48;;;14.13;;
25449;SDS011;13371;52.080;5.624;2024-02-28T14:14:12;30.85;;;15.27;;